createdAt,value
2019-02-10T00:04:39.922Z,7.42
2019-02-10T00:09:44.965Z,7.41
2019-02-10T00:14:50.308Z,7.39
2019-02-10T00:19:55.658Z,7.27
2019-02-10T00:25:01.245Z,7.27
2019-02-10T00:30:06.406Z,7.33
2019-02-10T00:35:11.844Z,7.30
2019-02-10T00:40:18.093Z,7.29
2019-02-10T00:45:23.287Z,7.32
2019-02-10T00:50:28.720Z,7.33
2019-02-10T00:55:34.426Z,7.34
2019-02-10T01:00:40.164Z,7.32
2019-02-10T01:05:45.772Z,7.34
2019-02-10T01:10:51.522Z,7.36
2019-02-10T01:15:58.754Z,7.38
2019-02-10T01:21:04.202Z,7.38
2019-02-10T01:26:09.578Z,7.35
2019-02-10T01:31:17.064Z,7.29
2019-02-10T01:36:24.451Z,7.28
2019-02-10T01:41:30.039Z,7.22
2019-02-10T01:46:36.082Z,7.24
2019-02-10T01:51:43.935Z,7.18
2019-02-10T01:56:50.284Z,7.17
2019-02-10T02:01:57.818Z,7.14
2019-02-10T02:07:06.412Z,7.08
2019-02-10T02:12:11.966Z,7.01
2019-02-10T02:17:19.388Z,6.99
2019-02-10T02:22:25.952Z,6.97
2019-02-10T02:27:32.096Z,6.93
2019-02-10T02:32:39.491Z,6.92
2019-02-10T02:37:45.735Z,6.98
2019-02-10T02:42:50.980Z,6.95
2019-02-10T02:47:59.649Z,6.87
2019-02-10T02:53:07.710Z,6.90
2019-02-10T02:58:13.476Z,6.80
2019-02-10T03:03:18.621Z,6.75
2019-02-10T03:08:23.681Z,6.73
2019-02-10T03:13:30.858Z,6.71
2019-02-10T03:18:38.666Z,6.71
2019-02-10T03:23:45.447Z,6.67
2019-02-10T03:28:51.120Z,6.61
2019-02-10T03:33:57.604Z,6.64
2019-02-10T03:39:04.793Z,6.61
2019-02-10T03:44:14.508Z,6.60
2019-02-10T03:49:20.055Z,6.60
2019-02-10T03:54:25.869Z,6.61
2019-02-10T03:59:31.468Z,6.59
2019-02-10T04:04:43.326Z,6.55
2019-02-10T04:09:50.395Z,6.55
2019-02-10T04:14:56.568Z,6.56
2019-02-10T04:20:03.819Z,6.52
2019-02-10T04:25:11.568Z,6.52
2019-02-10T04:30:19.775Z,6.53
2019-02-10T04:35:28.086Z,6.67
2019-02-10T04:40:33.396Z,6.72
2019-02-10T04:45:38.698Z,6.75
2019-02-10T04:50:44.550Z,6.80
2019-02-10T04:56:14.330Z,6.87
2019-02-10T05:01:20.997Z,6.87
2019-02-10T05:06:26.233Z,6.89
2019-02-10T05:11:34.538Z,6.95
2019-02-10T05:16:39.918Z,6.99
2019-02-10T05:21:45.527Z,7.08
2019-02-10T05:26:50.678Z,7.12
2019-02-10T05:31:56.861Z,7.15
2019-02-10T05:37:02.268Z,7.19
2019-02-10T05:42:09.170Z,7.17
2019-02-10T05:47:17.118Z,7.21
2019-02-10T05:52:22.420Z,7.15
2019-02-10T05:57:27.530Z,7.16
2019-02-10T06:02:33.319Z,7.13
2019-02-10T06:07:39.419Z,7.17
2019-02-10T06:12:47.130Z,7.18
2019-02-10T06:17:52.292Z,7.21
2019-02-10T06:22:57.289Z,7.19
2019-02-10T06:28:07.169Z,7.16
2019-02-10T06:33:15.772Z,7.23
2019-02-10T06:38:22.786Z,7.32
2019-02-10T06:43:28.388Z,7.40
2019-02-10T06:48:33.734Z,7.51
2019-02-10T06:53:39.738Z,7.63
2019-02-10T06:58:45.592Z,7.73
2019-02-10T07:03:59.367Z,7.79
2019-02-10T07:09:07.340Z,7.80
2019-02-10T07:14:27.394Z,7.85
2019-02-10T07:20:07.876Z,7.87
2019-02-10T07:25:47.711Z,7.93
2019-02-10T07:30:54.047Z,7.88
2019-02-10T07:36:33.436Z,7.84
2019-02-10T07:42:03.630Z,7.78
2019-02-10T07:47:46.184Z,7.80
2019-02-10T07:53:41.248Z,7.93
2019-02-10T07:59:22.274Z,7.96
2019-02-10T08:04:59.929Z,8.09
2019-02-10T08:11:02.159Z,8.17
2019-02-10T08:16:47.384Z,8.25
2019-02-10T08:22:45.540Z,8.27
2019-02-10T08:28:22.644Z,8.25
2019-02-10T08:33:53.156Z,8.23
2019-02-10T08:39:24.505Z,8.25
2019-02-10T08:45:18.168Z,8.30
2019-02-10T08:51:04.484Z,8.38
2019-02-10T08:56:11.284Z,8.58
2019-02-10T09:01:17.094Z,8.62
2019-02-10T09:06:27.287Z,8.67
2019-02-10T09:11:34.880Z,8.78
2019-02-10T09:16:41.272Z,8.85
2019-02-10T09:21:46.990Z,8.85
2019-02-10T09:26:52.972Z,8.94
2019-02-10T09:31:59.350Z,8.98
2019-02-10T09:37:04.536Z,9.03
2019-02-10T09:42:12.754Z,9.13
2019-02-10T09:47:17.824Z,9.21
2019-02-10T09:52:23.392Z,9.11
2019-02-10T09:57:28.515Z,9.08
2019-02-10T10:02:33.845Z,9.09
2019-02-10T10:07:38.956Z,9.19
2019-02-10T10:12:44.314Z,9.21
2019-02-10T10:17:49.644Z,9.25
2019-02-10T10:23:00.569Z,9.23
2019-02-10T10:28:09.398Z,9.21
2019-02-10T10:33:19.237Z,9.26
2019-02-10T10:38:27.796Z,9.26
2019-02-10T10:43:34.382Z,9.33
2019-02-10T10:48:41.115Z,9.37
2019-02-10T10:53:52.704Z,9.40
2019-02-10T10:58:58.221Z,9.43
2019-02-10T11:04:05.054Z,9.47
2019-02-10T11:09:10.900Z,9.53
2019-02-10T11:14:16.651Z,9.59
2019-02-10T11:19:24.270Z,9.66
2019-02-10T11:24:30.443Z,9.74
2019-02-10T11:29:39.734Z,9.80
2019-02-10T11:34:47.890Z,9.83
2019-02-10T11:39:56.769Z,9.87
2019-02-10T11:45:02.378Z,9.91
2019-02-10T11:50:13.936Z,9.98
2019-02-10T11:55:22.811Z,10.07
2019-02-10T12:00:27.729Z,10.14
2019-02-10T12:05:33.243Z,10.07
2019-02-10T12:10:39.234Z,10.09
2019-02-10T12:15:44.735Z,10.06
2019-02-10T12:20:50.098Z,10.09
2019-02-10T12:25:56.650Z,10.11
2019-02-10T12:31:04.942Z,10.12
2019-02-10T12:36:17.958Z,10.17
2019-02-10T12:41:30.834Z,10.19
2019-02-10T12:46:41.196Z,10.26
2019-02-10T12:51:46.588Z,10.32
2019-02-10T12:56:53.080Z,10.33
2019-02-10T13:01:59.134Z,10.27
2019-02-10T13:07:07.692Z,10.27
2019-02-10T13:12:12.965Z,10.34
2019-02-10T13:17:21.668Z,10.28
2019-02-10T13:22:30.521Z,10.35
2019-02-10T13:27:36.671Z,10.34
2019-02-10T13:32:42.360Z,10.32
2019-02-10T13:37:51.460Z,10.29
2019-02-10T13:42:57.174Z,10.27
2019-02-10T13:48:03.160Z,10.29
2019-02-10T13:53:13.303Z,10.35
2019-02-10T13:58:23.668Z,10.43
2019-02-10T14:03:28.970Z,10.66
2019-02-10T14:08:34.941Z,10.77
2019-02-10T14:13:41.266Z,10.85
2019-02-10T14:18:47.949Z,10.86
2019-02-10T14:23:54.014Z,10.90
2019-02-10T14:28:59.356Z,10.91
2019-02-10T14:34:04.847Z,11.04
2019-02-10T14:39:10.944Z,11.18
2019-02-10T14:44:17.350Z,11.22
2019-02-10T14:49:23.128Z,11.17
2019-02-10T14:54:29.510Z,11.18
2019-02-10T14:59:34.767Z,11.13
2019-02-10T15:04:40.062Z,11.10
2019-02-10T15:09:45.897Z,11.03
2019-02-10T15:14:51.319Z,11.01
2019-02-10T15:19:56.535Z,11.03
2019-02-10T15:25:01.863Z,11.00
2019-02-10T15:30:08.464Z,10.97
2019-02-10T15:35:14.076Z,11.03
2019-02-10T15:40:19.633Z,10.97
2019-02-10T15:45:26.114Z,10.94
2019-02-10T15:50:31.321Z,10.94
2019-02-10T15:55:36.719Z,10.94
2019-02-10T16:00:41.780Z,10.89
2019-02-10T16:05:47.291Z,10.82
2019-02-10T16:10:58.143Z,10.77
2019-02-10T16:16:00.328Z,10.70
2019-02-10T16:21:05.524Z,10.69
2019-02-10T16:26:17.631Z,10.64
2019-02-10T16:31:22.902Z,10.60
2019-02-10T16:36:28.789Z,10.54
2019-02-10T16:41:34.487Z,10.49
2019-02-10T16:46:43.304Z,10.46
2019-02-10T16:51:50.660Z,10.36
2019-02-10T16:56:58.719Z,10.32
2019-02-10T17:02:07.258Z,10.26
2019-02-10T17:07:12.937Z,10.17
2019-02-10T17:12:18.607Z,10.16
2019-02-10T17:17:24.014Z,10.13
2019-02-10T17:22:31.245Z,10.12
2019-02-10T17:27:37.909Z,10.08
2019-02-10T17:32:45.685Z,10.02
2019-02-10T17:37:50.838Z,9.99
2019-02-10T17:43:00.140Z,9.91
2019-02-10T17:48:06.151Z,9.83
2019-02-10T17:53:14.897Z,9.85
2019-02-10T17:58:21.094Z,9.81
2019-02-10T18:03:29.075Z,9.86
2019-02-10T18:08:36.073Z,9.85
2019-02-10T18:13:42.729Z,9.84
2019-02-10T18:18:54.684Z,9.90
2019-02-10T18:24:17.891Z,9.90
2019-02-10T18:29:45.447Z,9.92
2019-02-10T18:35:06.988Z,9.90
2019-02-10T18:40:30.369Z,9.97
2019-02-10T18:46:01.893Z,9.96
2019-02-10T18:51:33.158Z,9.94
2019-02-10T18:56:59.718Z,10.09
2019-02-10T19:02:25.964Z,10.14
2019-02-10T19:08:09.325Z,10.14
2019-02-10T19:13:22.331Z,10.06
2019-02-10T19:18:42.723Z,9.97
2019-02-10T19:23:57.199Z,9.93
2019-02-10T19:29:27.641Z,9.88
2019-02-10T19:34:43.653Z,9.81
2019-02-10T19:40:07.885Z,9.80
2019-02-10T19:45:32.880Z,9.72
2019-02-10T19:51:13.077Z,9.65
2019-02-10T19:56:42.064Z,9.65
2019-02-10T20:02:03.593Z,9.57
2019-02-10T20:07:35.157Z,9.50
2019-02-10T20:12:56.957Z,9.43
2019-02-10T20:18:25.502Z,9.41
2019-02-10T20:23:56.496Z,9.42
2019-02-10T20:29:29.362Z,9.37
2019-02-10T20:34:52.089Z,9.35
2019-02-10T20:40:25.356Z,9.34
2019-02-10T20:45:42.827Z,9.41
2019-02-10T20:51:06.637Z,9.35
2019-02-10T20:56:33.561Z,9.42
2019-02-10T21:02:01.053Z,9.33
2019-02-10T21:07:23.813Z,9.25
2019-02-10T21:12:46.702Z,9.20
2019-02-10T21:18:01.802Z,9.12
2019-02-10T21:23:14.741Z,9.11
2019-02-10T21:28:28.909Z,9.14
2019-02-10T21:33:54.847Z,9.12
2019-02-10T21:39:08.775Z,9.04
2019-02-10T21:44:20.646Z,9.00
2019-02-10T21:49:27.411Z,8.87
2019-02-10T21:54:32.919Z,8.83
2019-02-10T21:59:38.343Z,8.73
2019-02-10T22:04:43.754Z,8.71
2019-02-10T22:09:49.340Z,8.70
2019-02-10T22:14:59.758Z,8.70
2019-02-10T22:20:06.291Z,8.67
2019-02-10T22:25:12.048Z,8.63
2019-02-10T22:30:17.243Z,8.59
2019-02-10T22:35:22.629Z,8.47
2019-02-10T22:40:27.756Z,8.36
2019-02-10T22:45:33.525Z,8.40
2019-02-10T22:50:38.805Z,8.32
2019-02-10T22:55:44.029Z,8.24
2019-02-10T23:00:58.349Z,8.25
2019-02-10T23:06:04.076Z,8.19
2019-02-10T23:11:09.190Z,8.11
2019-02-10T23:16:15.771Z,8.17
2019-02-10T23:21:24.495Z,8.17
2019-02-10T23:26:30.717Z,8.16
2019-02-10T23:31:36.357Z,8.18
2019-02-10T23:36:41.666Z,8.20
2019-02-10T23:41:47.959Z,8.16
2019-02-10T23:46:53.309Z,8.11
2019-02-10T23:52:00.122Z,8.06
2019-02-10T23:57:05.556Z,8.05
